Time;durP1;ratioP1;P1;durP2;ratioP2;P2;SDS_P1;SDS_P2;PMS_P1;PMS_P2;Temp;Humidity;BMP_temperature;BMP_pressure;BME280_temperature;BME280_humidity;BME280_pressure;Samples;Min_cycle;Max_cycle;Signal;HPM_P1;HPM_P2
2021/03/02 00:01:26;;;;;;;11.40;7.60;;;10.90;44.50;;;;;;5067688;28;20195;-40
2021/03/02 00:03:53;;;;;;;13.17;8.70;;;10.90;44.40;;;;;;5070143;28;20434;-40
2021/03/02 00:06:19;;;;;;;12.50;8.97;;;10.90;44.40;;;;;;5069044;28;20176;-40
2021/03/02 00:08:45;;;;;;;9.80;7.97;;;10.90;44.50;;;;;;5072797;28;20430;-40
2021/03/02 00:11:12;;;;;;;12.63;8.23;;;10.80;44.50;;;;;;5071911;28;20426;-40
2021/03/02 00:13:38;;;;;;;11.50;8.07;;;10.80;44.60;;;;;;5072592;28;20442;-40
2021/03/02 00:16:04;;;;;;;12.40;7.67;;;10.80;44.50;;;;;;5075274;28;20480;-40
2021/03/02 00:18:37;;;;;;;7.47;6.67;;;10.70;44.60;;;;;;5073809;28;20192;-40
2021/03/02 00:21:07;;;;;;;11.03;7.67;;;10.70;44.70;;;;;;5072003;28;20435;-40
2021/03/02 00:23:39;;;;;;;10.93;6.87;;;10.80;44.60;;;;;;5072363;28;20550;-40
2021/03/02 00:26:07;;;;;;;10.83;7.60;;;10.70;44.70;;;;;;5069498;28;20457;-40
2021/03/02 00:28:34;;;;;;;12.40;7.53;;;10.60;44.80;;;;;;5071656;28;20477;-40
2021/03/02 00:31:01;;;;;;;12.47;8.67;;;10.60;44.90;;;;;;5071198;28;20474;-40
2021/03/02 00:33:28;;;;;;;10.03;7.47;;;10.60;45.00;;;;;;5072175;28;20921;-40
2021/03/02 00:35:54;;;;;;;8.90;6.93;;;10.60;45.00;;;;;;5070928;28;20494;-40
2021/03/02 00:38:20;;;;;;;8.50;7.70;;;10.60;44.90;;;;;;5071874;28;20436;-40
2021/03/02 00:40:45;;;;;;;10.30;7.37;;;10.50;45.00;;;;;;5070768;28;20179;-40
2021/03/02 00:43:11;;;;;;;9.37;6.80;;;10.40;45.30;;;;;;5071076;28;20196;-40
2021/03/02 00:45:37;;;;;;;12.83;7.77;;;10.40;46.00;;;;;;5070985;28;20238;-40
2021/03/02 00:48:03;;;;;;;8.47;7.30;;;10.30;45.40;;;;;;5071546;28;20192;-40
2021/03/02 00:50:29;;;;;;;8.80;7.40;;;10.30;45.40;;;;;;5071264;28;20188;-40
2021/03/02 00:52:54;;;;;;;12.40;7.93;;;10.30;45.50;;;;;;5071039;28;20433;-40
2021/03/02 00:55:20;;;;;;;9.03;6.93;;;10.30;45.50;;;;;;5069282;28;20478;-40
2021/03/02 00:57:46;;;;;;;10.97;7.50;;;10.30;45.60;;;;;;5071330;28;20188;-40
2021/03/02 01:00:13;;;;;;;14.43;8.20;;;10.20;45.70;;;;;;5070641;28;21001;-40
2021/03/02 01:02:39;;;;;;;9.07;7.10;;;10.20;45.80;;;;;;5070793;28;20192;-40
2021/03/02 01:05:07;;;;;;;13.53;7.80;;;10.10;45.90;;;;;;5071389;28;20770;-40
2021/03/02 01:07:33;;;;;;;14.63;7.60;;;10.10;45.90;;;;;;5053228;28;20200;-40
2021/03/02 01:09:59;;;;;;;10.73;7.83;;;10.10;45.80;;;;;;5069676;28;20426;-40
2021/03/02 01:12:28;;;;;;;11.93;6.90;;;10.00;45.90;;;;;;5070682;28;20438;-40
2021/03/02 01:14:59;;;;;;;10.13;7.70;;;10.00;45.90;;;;;;5070294;28;20223;-40
2021/03/02 01:17:26;;;;;;;11.30;7.30;;;9.90;47.10;;;;;;5071254;28;20493;-40
2021/03/02 01:19:52;;;;;;;10.50;7.40;;;9.90;47.40;;;;;;5070329;28;20459;-40
2021/03/02 01:22:18;;;;;;;10.67;8.10;;;9.90;47.70;;;;;;5068700;28;20430;-40
2021/03/02 01:24:44;;;;;;;13.10;7.63;;;9.90;47.90;;;;;;5077373;28;20430;-40
2021/03/02 01:27:10;;;;;;;11.20;8.13;;;9.90;48.00;;;;;;5069817;28;20435;-40
2021/03/02 01:29:35;;;;;;;12.60;7.57;;;9.80;48.10;;;;;;5070281;28;20350;-40
2021/03/02 01:32:01;;;;;;;11.60;8.17;;;9.80;47.90;;;;;;5070824;28;20230;-40
2021/03/02 01:34:27;;;;;;;12.03;6.97;;;9.80;47.80;;;;;;5069780;28;20681;-40
2021/03/02 01:36:53;;;;;;;9.10;7.63;;;9.80;47.40;;;;;;5069635;28;20191;-40
2021/03/02 01:39:18;;;;;;;10.17;7.07;;;9.70;47.00;;;;;;5070139;28;20274;-40
2021/03/02 01:41:49;;;;;;;10.80;6.80;;;9.70;47.10;;;;;;5070401;28;20206;-40
2021/03/02 01:44:15;;;;;;;13.30;7.73;;;9.60;47.50;;;;;;5069489;28;20270;-40
2021/03/02 01:46:40;;;;;;;15.23;7.10;;;9.60;48.00;;;;;;5070850;28;20418;-40
2021/03/02 01:49:06;;;;;;;9.70;7.20;;;9.60;48.30;;;;;;5069947;28;20445;-40
2021/03/02 01:51:32;;;;;;;15.27;7.30;;;9.40;48.60;;;;;;5069070;28;20226;-40
2021/03/02 01:53:58;;;;;;;8.60;7.00;;;9.30;49.00;;;;;;5069776;28;20753;-40
2021/03/02 01:56:24;;;;;;;12.60;7.40;;;9.20;49.30;;;;;;5068340;28;20199;-40
2021/03/02 01:58:49;;;;;;;11.10;8.00;;;8.80;50.10;;;;;;5072982;28;20430;-40
2021/03/02 02:01:17;;;;;;;10.80;7.07;;;8.40;51.20;;;;;;5062527;28;20740;-40
2021/03/02 02:03:53;;;;;;;8.83;7.00;;;8.00;52.00;;;;;;5070470;28;20188;-40
2021/03/02 02:06:39;;;;;;;12.23;7.53;;;7.70;53.00;;;;;;5068941;28;20434;-40
2021/03/02 02:09:32;;;;;;;8.80;6.80;;;7.30;53.80;;;;;;5069760;28;20453;-40
2021/03/02 02:12:24;;;;;;;11.77;7.73;;;7.20;54.60;;;;;;5066265;28;20445;-40
2021/03/02 02:14:55;;;;;;;10.13;7.37;;;7.70;53.80;;;;;;5069973;28;20486;-40
2021/03/02 02:17:22;;;;;;;8.90;6.90;;;8.10;53.30;;;;;;5069111;28;20443;-40
2021/03/02 02:19:51;;;;;;;10.30;6.50;;;8.30;51.80;;;;;;5069447;28;20493;-40
2021/03/02 02:22:33;;;;;;;8.93;6.30;;;8.50;51.30;;;;;;5070326;28;20442;-40
2021/03/02 02:25:27;;;;;;;8.00;6.50;;;8.40;51.20;;;;;;5065792;28;20525;-40
2021/03/02 02:27:56;;;;;;;6.87;6.17;;;8.50;51.10;;;;;;5069170;28;20442;-41
2021/03/02 02:30:23;;;;;;;9.57;6.60;;;8.60;50.80;;;;;;5067923;28;20969;-40
2021/03/02 02:32:50;;;;;;;10.60;6.87;;;8.40;51.20;;;;;;5070345;28;20517;-40
2021/03/02 02:35:19;;;;;;;7.80;6.07;;;8.20;52.00;;;;;;5069359;28;20510;-40
2021/03/02 02:37:47;;;;;;;12.20;6.90;;;8.00;52.10;;;;;;5068567;28;20457;-41
2021/03/02 02:40:14;;;;;;;11.53;6.60;;;8.00;52.50;;;;;;5069184;28;20438;-40
2021/03/02 02:42:44;;;;;;;9.23;7.00;;;8.00;52.50;;;;;;5068721;28;20430;-40
2021/03/02 02:45:10;;;;;;;9.70;6.57;;;8.10;52.40;;;;;;5061156;28;20433;-40
2021/03/02 02:47:36;;;;;;;8.50;6.10;;;8.00;52.60;;;;;;5067719;28;20480;-40
2021/03/02 02:50:05;;;;;;;9.87;7.53;;;8.00;53.00;;;;;;5073339;28;20551;-40
2021/03/02 02:52:31;;;;;;;7.00;5.83;;;7.70;52.70;;;;;;5065223;28;20840;-40
2021/03/02 02:54:58;;;;;;;9.07;6.67;;;7.90;53.00;;;;;;5068089;28;20989;-40
2021/03/02 02:57:25;;;;;;;7.70;6.37;;;7.90;53.00;;;;;;5068873;28;20450;-40
2021/03/02 02:59:53;;;;;;;10.70;5.87;;;8.10;52.80;;;;;;5069097;28;20438;-40
2021/03/02 03:02:24;;;;;;;9.43;6.80;;;8.20;52.20;;;;;;5069425;28;20461;-40
2021/03/02 03:04:54;;;;;;;7.97;6.50;;;8.40;51.80;;;;;;5051010;28;20438;-40
2021/03/02 03:07:28;;;;;;;9.20;6.60;;;8.30;51.70;;;;;;5069682;28;21229;-40
2021/03/02 03:09:55;;;;;;;11.33;6.70;;;8.30;51.60;;;;;;5068211;28;20437;-40
2021/03/02 03:12:24;;;;;;;9.50;5.40;;;8.40;51.20;;;;;;5069519;28;20840;-40
2021/03/02 03:14:56;;;;;;;7.60;6.47;;;8.40;50.80;;;;;;5067242;28;20522;-40
2021/03/02 03:17:22;;;;;;;10.70;6.40;;;8.50;50.80;;;;;;5069684;28;20434;-40
2021/03/02 03:19:50;;;;;;;9.00;6.30;;;8.50;50.50;;;;;;5068686;28;20770;-40
2021/03/02 03:22:17;;;;;;;12.33;6.60;;;8.60;50.40;;;;;;5068926;28;20429;-40
2021/03/02 03:24:43;;;;;;;9.23;6.23;;;8.60;50.40;;;;;;5069341;28;20523;-40
2021/03/02 03:27:10;;;;;;;8.90;6.87;;;8.60;50.40;;;;;;5069365;28;20569;-40
2021/03/02 03:29:37;;;;;;;8.33;6.40;;;8.50;51.00;;;;;;5068379;28;20461;-40
2021/03/02 03:32:06;;;;;;;7.23;6.17;;;8.50;50.60;;;;;;5068964;28;20438;-40
2021/03/02 03:34:32;;;;;;;9.63;6.70;;;8.40;51.10;;;;;;5064144;28;20497;-40
2021/03/02 03:36:58;;;;;;;13.40;6.17;;;8.20;51.30;;;;;;5073111;28;20442;-40
2021/03/02 03:39:24;;;;;;;6.53;5.70;;;7.70;52.80;;;;;;5071638;28;20196;-40
2021/03/02 03:41:50;;;;;;;10.27;5.73;;;7.60;53.40;;;;;;5080497;28;20525;-40
2021/03/02 03:44:16;;;;;;;14.47;6.10;;;7.70;53.00;;;;;;5072066;28;20192;-40
2021/03/02 03:46:41;;;;;;;8.53;6.07;;;7.80;52.80;;;;;;5054608;28;21119;-40
2021/03/02 03:49:07;;;;;;;8.03;5.93;;;7.90;52.30;;;;;;5072791;28;20845;-40
2021/03/02 03:51:36;;;;;;;9.60;6.43;;;8.00;52.00;;;;;;5072621;28;20195;-40
2021/03/02 03:54:02;;;;;;;9.03;6.43;;;8.10;51.60;;;;;;5072412;28;21008;-40
2021/03/02 03:56:28;;;;;;;7.80;6.47;;;8.10;52.10;;;;;;5071658;28;20434;-40
2021/03/02 03:58:54;;;;;;;9.40;6.37;;;8.10;51.50;;;;;;5073746;28;20508;-40
2021/03/02 04:01:20;;;;;;;7.47;5.97;;;8.00;51.70;;;;;;5068338;28;20227;-40
2021/03/02 04:03:47;;;;;;;10.80;6.03;;;8.00;52.00;;;;;;5067525;28;20449;-40
2021/03/02 04:06:13;;;;;;;9.50;6.10;;;8.00;51.80;;;;;;5072017;28;20430;-40
2021/03/02 04:08:39;;;;;;;9.20;6.23;;;8.10;51.90;;;;;;5070733;28;20491;-40
2021/03/02 04:11:05;;;;;;;6.67;5.60;;;8.10;51.50;;;;;;5071262;28;20430;-40
2021/03/02 04:13:31;;;;;;;8.93;6.20;;;8.20;51.20;;;;;;5049635;28;20196;-40
2021/03/02 04:16:00;;;;;;;12.20;6.87;;;8.20;51.10;;;;;;5072956;28;20239;-40
2021/03/02 04:18:26;;;;;;;6.93;5.30;;;8.10;51.50;;;;;;5071750;28;20837;-40
2021/03/02 04:20:52;;;;;;;10.13;5.80;;;8.00;51.90;;;;;;5071739;28;20434;-40
2021/03/02 04:23:19;;;;;;;9.80;6.30;;;7.80;52.50;;;;;;5054558;28;20438;-40
2021/03/02 04:25:44;;;;;;;11.70;5.53;;;7.70;52.50;;;;;;5071016;28;20430;-40
2021/03/02 04:28:10;;;;;;;9.07;6.33;;;7.40;53.00;;;;;;5072660;28;20438;-40
2021/03/02 04:30:36;;;;;;;6.87;5.10;;;7.10;53.80;;;;;;5070954;28;20227;-40
2021/03/02 04:33:03;;;;;;;10.80;6.20;;;6.60;55.30;;;;;;5072376;28;20536;-40
2021/03/02 04:35:29;;;;;;;8.67;6.57;;;6.60;56.00;;;;;;5070918;28;20842;-40
2021/03/02 04:37:55;;;;;;;7.57;5.27;;;6.50;55.80;;;;;;5070073;28;20434;-40
2021/03/02 04:40:20;;;;;;;10.63;6.07;;;6.10;56.40;;;;;;5070854;28;20457;-40
2021/03/02 04:42:46;;;;;;;8.87;5.90;;;6.20;56.60;;;;;;5071294;28;20202;-40
2021/03/02 04:45:13;;;;;;;9.53;6.90;;;6.30;56.50;;;;;;5071049;28;20192;-40
2021/03/02 04:47:42;;;;;;;9.27;5.60;;;6.50;56.10;;;;;;5071518;28;20200;-40
2021/03/02 04:50:09;;;;;;;8.20;6.20;;;6.60;56.20;;;;;;5072102;28;20423;-40
2021/03/02 04:52:34;;;;;;;8.23;6.03;;;6.80;55.90;;;;;;5072098;28;21063;-40
2021/03/02 04:55:00;;;;;;;8.70;6.10;;;7.00;55.30;;;;;;5070392;28;20482;-40
2021/03/02 04:57:25;;;;;;;7.60;5.90;;;6.70;55.40;;;;;;5070990;28;20188;-40
2021/03/02 04:59:51;;;;;;;8.07;5.60;;;6.90;55.40;;;;;;5070748;28;20188;-40
2021/03/02 05:02:17;;;;;;;11.17;6.67;;;7.10;55.00;;;;;;5061611;28;20203;-40
2021/03/02 05:04:43;;;;;;;7.27;5.60;;;7.00;54.70;;;;;;5070716;28;20277;-40
2021/03/02 05:07:09;;;;;;;9.83;6.00;;;7.00;54.70;;;;;;5071719;28;20591;-40
2021/03/02 05:09:34;;;;;;;12.17;6.27;;;6.80;55.10;;;;;;5070816;28;20518;-41
2021/03/02 05:12:00;;;;;;;7.43;6.03;;;6.60;55.80;;;;;;5053526;28;20203;-40
2021/03/02 05:14:25;;;;;;;10.17;6.83;;;6.60;55.70;;;;;;5069958;28;20215;-40
2021/03/02 05:16:51;;;;;;;8.90;5.80;;;6.80;55.50;;;;;;5070541;28;20233;-40
2021/03/02 05:19:17;;;;;;;8.57;6.40;;;6.90;55.10;;;;;;5070460;28;20908;-40
2021/03/02 05:21:43;;;;;;;7.67;5.93;;;7.10;54.70;;;;;;5071394;28;20275;-40
2021/03/02 05:24:09;;;;;;;10.40;6.07;;;7.20;54.30;;;;;;5070545;28;20426;-40
2021/03/02 05:26:34;;;;;;;8.43;6.30;;;7.10;54.20;;;;;;5063974;28;20192;-40
2021/03/02 05:29:00;;;;;;;9.03;6.23;;;6.90;54.80;;;;;;5070760;28;20499;-40
2021/03/02 05:31:26;;;;;;;6.10;5.40;;;6.90;55.20;;;;;;5069560;28;20277;-40
2021/03/02 05:33:52;;;;;;;10.30;5.90;;;7.00;55.30;;;;;;5069197;28;20426;-40
2021/03/02 05:36:17;;;;;;;11.20;5.63;;;7.00;55.30;;;;;;5069130;28;20683;-40
2021/03/02 05:38:43;;;;;;;10.57;5.90;;;6.90;55.40;;;;;;5047860;28;20663;-40
2021/03/02 05:41:10;;;;;;;10.33;6.10;;;7.00;55.20;;;;;;5065962;28;20194;-40
2021/03/02 05:43:40;;;;;;;7.50;5.70;;;7.00;54.90;;;;;;5070116;28;20483;-40
2021/03/02 05:46:06;;;;;;;11.63;6.97;;;7.00;55.00;;;;;;5069428;28;21804;-40
2021/03/02 05:48:33;;;;;;;8.80;6.07;;;7.10;55.00;;;;;;5070319;28;20449;-40
2021/03/02 05:50:58;;;;;;;6.60;5.00;;;7.20;54.80;;;;;;5070235;28;20442;-40
2021/03/02 05:53:24;;;;;;;9.43;6.30;;;6.90;55.00;;;;;;5070180;28;20431;-40
2021/03/02 05:55:50;;;;;;;8.13;6.33;;;6.70;55.60;;;;;;5070216;28;20242;-40
2021/03/02 05:58:16;;;;;;;9.53;6.87;;;6.70;55.80;;;;;;5069121;28;20188;-40
2021/03/02 06:00:43;;;;;;;10.87;6.37;;;6.60;56.00;;;;;;5066627;28;20441;-40
2021/03/02 06:03:09;;;;;;;10.87;6.93;;;6.70;56.00;;;;;;5069430;28;20461;-40
2021/03/02 06:05:35;;;;;;;10.30;7.70;;;6.80;55.70;;;;;;5057406;28;20545;-40
2021/03/02 06:08:01;;;;;;;9.30;6.40;;;6.90;55.40;;;;;;5069432;28;20516;-40
2021/03/02 06:10:33;;;;;;;10.37;6.40;;;7.10;55.10;;;;;;5069945;28;20195;-40
2021/03/02 06:13:00;;;;;;;13.00;7.90;;;7.00;55.20;;;;;;5074045;28;20980;-40
2021/03/02 06:15:28;;;;;;;19.33;10.80;;;7.00;55.90;;;;;;5069835;28;20883;-40
2021/03/02 06:18:19;;;;;;;21.67;11.47;;;7.50;58.20;;;;;;5069878;28;20476;-40
2021/03/02 06:20:45;;;;;;;15.50;10.00;;;8.00;57.90;;;;;;5062087;28;20445;-40
2021/03/02 06:23:31;;;;;;;21.00;11.57;;;8.40;56.20;;;;;;5069490;28;20913;-41
2021/03/02 06:26:23;;;;;;;16.27;9.43;;;8.90;54.60;;;;;;5069293;28;20437;-40
2021/03/02 06:28:50;;;;;;;15.20;9.40;;;9.10;53.40;;;;;;5066886;28;20442;-40
2021/03/02 06:31:40;;;;;;;15.13;8.10;;;9.40;52.20;;;;;;5067823;28;20488;-40
2021/03/02 06:34:07;;;;;;;13.90;8.67;;;9.60;51.30;;;;;;5064086;28;20433;-40
2021/03/02 06:36:32;;;;;;;11.63;7.97;;;9.80;50.60;;;;;;5069968;28;20438;-40
2021/03/02 06:39:18;;;;;;;10.93;7.23;;;9.90;50.20;;;;;;5069565;28;20511;-41
2021/03/02 06:41:44;;;;;;;11.57;6.73;;;10.00;49.30;;;;;;5068504;28;20603;-41
2021/03/02 06:44:13;;;;;;;10.57;6.93;;;10.00;49.00;;;;;;5069728;28;20433;-40
2021/03/02 06:46:39;;;;;;;10.23;6.57;;;10.10;49.20;;;;;;5070324;28;20291;-40
2021/03/02 06:49:05;;;;;;;10.23;6.50;;;10.20;49.10;;;;;;5069268;28;20474;-40
2021/03/02 06:51:33;;;;;;;11.10;7.10;;;10.20;48.70;;;;;;5070161;28;20437;-41
2021/03/02 06:54:16;;;;;;;10.23;6.70;;;10.40;48.60;;;;;;5069546;28;20814;-40
2021/03/02 06:56:43;;;;;;;11.30;7.47;;;10.60;48.40;;;;;;5068474;28;20464;-41
2021/03/02 06:59:13;;;;;;;10.87;7.77;;;11.00;48.00;;;;;;5069317;28;20442;-40
2021/03/02 07:01:40;;;;;;;8.93;6.67;;;11.20;47.40;;;;;;5070009;28;20488;-41
2021/03/02 07:04:16;;;;;;;8.93;6.50;;;11.30;46.90;;;;;;5065308;28;20534;-41
2021/03/02 07:06:42;;;;;;;12.20;7.57;;;11.40;46.90;;;;;;5069810;28;20446;-40
2021/03/02 07:09:10;;;;;;;12.03;8.37;;;11.40;46.40;;;;;;5069056;28;20434;-41
2021/03/02 07:11:38;;;;;;;11.40;8.03;;;11.70;46.50;;;;;;5073268;28;20430;-41
2021/03/02 07:14:05;;;;;;;11.00;7.20;;;12.00;45.80;;;;;;5073075;28;20441;-41
2021/03/02 07:16:35;;;;;;;12.70;7.70;;;12.20;45.00;;;;;;5073101;28;20434;-41
2021/03/02 07:19:03;;;;;;;13.23;7.90;;;12.50;44.30;;;;;;5071937;28;20430;-41
2021/03/02 07:21:38;;;;;;;12.90;8.27;;;12.60;43.80;;;;;;5071976;28;20511;-41
2021/03/02 07:24:12;;;;;;;12.47;7.53;;;12.70;43.50;;;;;;5063335;28;20446;-41
2021/03/02 07:26:43;;;;;;;17.83;7.40;;;12.80;43.70;;;;;;5072288;28;21149;-41
2021/03/02 07:29:10;;;;;;;13.33;8.97;;;12.90;43.70;;;;;;5072000;28;20456;-41
2021/03/02 07:31:37;;;;;;;12.97;8.57;;;13.00;43.60;;;;;;5072096;28;20460;-41
2021/03/02 07:34:06;;;;;;;12.80;8.65;;;13.00;43.80;;;;;;5073318;28;20430;-41
2021/03/02 07:36:37;;;;;;;11.47;8.73;;;13.00;43.50;;;;;;5062879;28;20564;-41
2021/03/02 07:39:16;;;;;;;11.77;8.50;;;13.00;43.30;;;;;;5070403;28;20441;-40
2021/03/02 07:41:42;;;;;;;14.87;9.23;;;13.20;43.10;;;;;;5072732;28;20509;-41
2021/03/02 07:44:08;;;;;;;11.50;9.00;;;13.40;43.10;;;;;;5071869;28;20429;-41
2021/03/02 07:46:34;;;;;;;12.43;9.20;;;13.60;42.70;;;;;;5070593;28;20476;-41
2021/03/02 07:49:22;;;;;;;13.03;9.57;;;13.80;42.40;;;;;;5071028;28;20228;-42
2021/03/02 07:51:56;;;;;;;11.03;9.13;;;13.90;42.60;;;;;;5060452;28;20635;-41
2021/03/02 07:54:23;;;;;;;15.73;9.47;;;13.80;42.20;;;;;;5069470;28;20445;-42
2021/03/02 07:56:49;;;;;;;14.87;9.40;;;13.70;42.50;;;;;;5070934;28;20434;-41
2021/03/02 07:59:16;;;;;;;14.00;8.93;;;13.80;43.00;;;;;;5068330;28;20437;-41
2021/03/02 08:01:42;;;;;;;11.13;8.50;;;13.70;43.30;;;;;;5069520;28;20512;-41
2021/03/02 08:04:28;;;;;;;13.47;9.80;;;13.90;43.50;;;;;;5070027;28;20835;-41
2021/03/02 08:07:31;;;;;;;14.33;10.33;;;14.00;43.30;;;;;;5072020;28;20196;-41
2021/03/02 08:09:58;;;;;;;14.07;10.43;;;14.00;43.70;;;;;;5064826;28;20434;-41
2021/03/02 08:12:23;;;;;;;17.20;11.23;;;13.40;44.20;;;;;;5072474;28;20438;-41
2021/03/02 08:14:49;;;;;;;15.03;11.83;;;13.00;45.60;;;;;;5070871;28;20485;-41
2021/03/02 08:17:22;;;;;;;14.73;10.60;;;12.90;45.90;;;;;;5071646;28;20562;-41
2021/03/02 08:20:01;;;;;;;18.90;12.67;;;12.70;46.70;;;;;;5070575;28;20192;-41
2021/03/02 08:22:30;;;;;;;18.27;11.57;;;12.50;47.60;;;;;;5071231;28;20437;-41
2021/03/02 08:25:06;;;;;;;16.57;11.30;;;12.50;47.60;;;;;;5071808;28;20429;-41
2021/03/02 08:28:00;;;;;;;19.07;11.63;;;12.70;47.80;;;;;;5070973;28;20441;-41
2021/03/02 08:30:30;;;;;;;17.60;11.73;;;13.00;47.50;;;;;;5062747;28;20514;-41
2021/03/02 08:32:57;;;;;;;15.93;11.40;;;13.30;47.40;;;;;;5071761;28;20446;-41
2021/03/02 08:35:31;;;;;;;13.70;12.10;;;13.50;46.70;;;;;;5071314;28;20589;-42
2021/03/02 08:37:59;;;;;;;17.40;12.53;;;13.60;46.10;;;;;;5072243;28;20434;-41
2021/03/02 08:40:41;;;;;;;15.77;12.17;;;13.60;46.30;;;;;;5071321;28;20435;-41
2021/03/02 08:43:20;;;;;;;18.80;13.43;;;13.20;46.70;;;;;;5072343;28;20513;-41
2021/03/02 08:45:52;;;;;;;19.60;13.03;;;13.00;46.90;;;;;;5071171;28;20537;-42
2021/03/02 08:48:33;;;;;;;17.07;12.77;;;12.90;47.50;;;;;;5070680;28;20434;-41
2021/03/02 08:51:12;;;;;;;17.80;12.73;;;13.00;47.50;;;;;;5071129;28;20844;-41
2021/03/02 08:53:42;;;;;;;18.33;13.23;;;13.30;47.10;;;;;;5072267;28;20468;-41
2021/03/02 08:56:11;;;;;;;16.07;13.03;;;13.30;47.00;;;;;;5070732;28;20538;-41
2021/03/02 08:58:39;;;;;;;16.00;12.37;;;13.50;46.80;;;;;;5071938;28;20792;-42
2021/03/02 09:01:25;;;;;;;16.87;12.50;;;13.80;46.90;;;;;;5071010;28;20438;-42
2021/03/02 09:03:52;;;;;;;19.03;12.20;;;14.00;45.90;;;;;;5070715;28;20446;-41
2021/03/02 09:06:24;;;;;;;15.30;12.03;;;14.10;46.20;;;;;;5071061;28;20430;-41
2021/03/02 09:09:10;;;;;;;15.87;12.03;;;14.00;45.50;;;;;;5071533;28;20790;-42
2021/03/02 09:11:39;;;;;;;18.37;13.03;;;14.10;45.90;;;;;;5071569;28;20426;-42
2021/03/02 09:14:13;;;;;;;18.83;13.47;;;14.30;45.50;;;;;;5071449;28;20442;-42
2021/03/02 09:16:42;;;;;;;15.93;12.17;;;14.60;45.60;;;;;;5069528;28;20444;-42
2021/03/02 09:19:13;;;;;;;16.77;13.40;;;15.00;44.90;;;;;;5070846;28;20438;-41
2021/03/02 09:21:50;;;;;;;17.47;12.43;;;15.10;43.80;;;;;;5070722;28;20442;-42
2021/03/02 09:24:19;;;;;;;17.40;13.30;;;15.30;43.30;;;;;;5063563;28;20422;-41
2021/03/02 09:26:55;;;;;;;14.30;11.83;;;15.40;42.80;;;;;;5068801;28;20434;-41
2021/03/02 09:29:22;;;;;;;14.53;12.27;;;15.70;42.90;;;;;;5064672;28;20506;-41
2021/03/02 09:31:50;;;;;;;20.27;14.40;;;15.60;42.30;;;;;;5070661;28;20549;-41
2021/03/02 09:34:16;;;;;;;16.03;13.07;;;15.70;42.40;;;;;;5069893;28;20430;-42
2021/03/02 09:36:42;;;;;;;16.97;13.53;;;16.00;41.90;;;;;;5063649;28;20454;-42
2021/03/02 09:39:21;;;;;;;18.30;13.80;;;16.00;41.90;;;;;;5061222;28;20469;-41
2021/03/02 09:41:47;;;;;;;16.37;12.60;;;16.30;41.50;;;;;;5065541;28;20199;-41
2021/03/02 09:44:26;;;;;;;17.50;13.87;;;16.40;41.20;;;;;;5067787;28;20477;-41
2021/03/02 09:46:56;;;;;;;15.87;13.20;;;16.50;41.20;;;;;;5069350;28;20444;-41
2021/03/02 09:49:43;;;;;;;17.00;14.00;;;16.80;41.00;;;;;;5068529;28;20434;-41
2021/03/02 09:52:20;;;;;;;17.17;12.50;;;16.70;40.50;;;;;;5066339;28;21313;-41
2021/03/02 09:55:21;;;;;;;18.27;13.20;;;16.60;41.10;;;;;;5067879;28;20481;-41
2021/03/02 09:57:58;;;;;;;16.37;13.17;;;16.90;40.80;;;;;;5068097;28;20864;-41
2021/03/02 10:00:26;;;;;;;18.40;12.43;;;16.90;40.20;;;;;;5069282;28;20449;-41
2021/03/02 10:03:11;;;;;;;16.20;12.40;;;17.10;40.20;;;;;;5069950;28;20438;-41
2021/03/02 10:05:59;;;;;;;16.37;11.77;;;17.40;39.90;;;;;;5068006;28;21006;-41
2021/03/02 10:08:33;;;;;;;15.60;12.77;;;17.50;38.60;;;;;;5067527;28;20457;-41
2021/03/02 10:11:22;;;;;;;15.13;11.83;;;17.40;38.80;;;;;;5068425;28;20454;-41
2021/03/02 10:13:59;;;;;;;15.50;13.07;;;17.80;39.20;;;;;;5055900;28;20446;-42
2021/03/02 10:16:31;;;;;;;17.47;13.30;;;17.80;39.10;;;;;;5068136;28;20481;-41
2021/03/02 10:19:04;;;;;;;17.83;13.33;;;18.00;38.90;;;;;;5067649;28;20438;-41
2021/03/02 10:21:36;;;;;;;13.60;12.20;;;18.20;38.30;;;;;;5066504;28;20434;-41
2021/03/02 10:24:01;;;;;;;15.17;12.70;;;18.30;38.10;;;;;;5069162;28;20434;-41
2021/03/02 10:26:28;;;;;;;14.70;12.40;;;18.30;38.00;;;;;;5068758;28;20433;-41
2021/03/02 10:28:54;;;;;;;17.90;12.20;;;18.50;38.30;;;;;;5066780;28;20666;-41
2021/03/02 10:31:20;;;;;;;13.63;11.50;;;18.60;37.80;;;;;;5067510;28;20465;-41
2021/03/02 10:33:47;;;;;;;15.40;12.90;;;18.80;38.10;;;;;;5070316;28;20440;-41
2021/03/02 10:36:21;;;;;;;14.20;12.10;;;19.00;37.60;;;;;;5068050;28;20284;-41
2021/03/02 10:38:49;;;;;;;17.10;13.37;;;19.10;37.50;;;;;;5070195;28;20433;-41
2021/03/02 10:41:15;;;;;;;13.90;11.70;;;19.40;36.80;;;;;;5067779;28;20471;-41
2021/03/02 10:43:40;;;;;;;15.30;12.97;;;19.70;37.10;;;;;;5069674;28;20523;-41
2021/03/02 10:46:06;;;;;;;15.90;13.50;;;19.70;36.30;;;;;;5071914;28;20187;-42
2021/03/02 10:48:32;;;;;;;17.37;12.60;;;19.80;36.80;;;;;;5068049;28;20820;-41
2021/03/02 10:50:58;;;;;;;15.30;12.40;;;19.90;36.10;;;;;;5072532;28;20191;-41
2021/03/02 10:53:23;;;;;;;14.77;12.33;;;20.10;35.80;;;;;;5070808;28;20424;-41
2021/03/02 10:55:51;;;;;;;14.87;12.23;;;20.30;35.20;;;;;;5068956;28;20698;-42
2021/03/02 10:58:17;;;;;;;14.60;12.77;;;20.20;35.50;;;;;;5065305;28;20285;-41
2021/03/02 11:00:42;;;;;;;13.67;12.27;;;20.20;35.10;;;;;;5069004;28;21066;-42
2021/03/02 11:03:08;;;;;;;16.13;11.60;;;19.80;35.30;;;;;;5062796;28;20198;-41
2021/03/02 11:05:35;;;;;;;16.23;12.80;;;19.90;35.50;;;;;;5067145;28;20214;-42
2021/03/02 11:08:01;;;;;;;13.13;11.07;;;20.20;35.90;;;;;;5068955;28;21365;-42
2021/03/02 11:10:26;;;;;;;14.40;11.43;;;20.60;35.40;;;;;;5067444;28;20438;-41
2021/03/02 11:12:52;;;;;;;15.90;13.10;;;21.10;34.40;;;;;;5067510;28;20853;-42
2021/03/02 11:15:18;;;;;;;14.37;11.67;;;21.40;32.80;;;;;;5064754;28;20231;-42
2021/03/02 11:17:43;;;;;;;15.80;12.20;;;21.70;32.90;;;;;;5067966;28;20196;-41
2021/03/02 11:20:09;;;;;;;15.07;12.50;;;21.70;32.10;;;;;;5067465;28;20188;-42
2021/03/02 11:22:35;;;;;;;13.27;11.40;;;21.40;32.80;;;;;;5071821;28;20203;-41
2021/03/02 11:25:00;;;;;;;14.30;11.67;;;21.60;33.40;;;;;;5068788;28;20467;-41
2021/03/02 11:27:26;;;;;;;13.13;11.63;;;21.70;32.40;;;;;;5063933;28;20213;-42
2021/03/02 11:29:52;;;;;;;17.57;13.27;;;21.80;33.00;;;;;;5062803;28;20235;-41
2021/03/02 11:32:17;;;;;;;16.87;12.17;;;21.90;32.70;;;;;;5064402;28;20200;-41
2021/03/02 11:34:43;;;;;;;16.03;12.63;;;22.10;32.10;;;;;;5062444;28;20212;-42
2021/03/02 11:37:10;;;;;;;13.47;10.90;;;22.10;31.70;;;;;;5059553;28;20200;-42
2021/03/02 11:39:35;;;;;;;12.30;10.97;;;22.30;32.20;;;;;;5045888;28;20196;-42
2021/03/02 11:42:01;;;;;;;18.83;11.67;;;22.40;32.80;;;;;;5064423;28;20433;-42
2021/03/02 11:44:29;;;;;;;12.33;11.03;;;22.60;31.70;;;;;;5065641;28;20275;-42
2021/03/02 11:46:55;;;;;;;14.33;11.37;;;22.70;31.80;;;;;;5066582;28;20192;-42
2021/03/02 11:49:21;;;;;;;11.90;10.43;;;22.70;31.30;;;;;;5067257;28;20434;-42
2021/03/02 11:51:46;;;;;;;10.57;9.50;;;22.80;32.20;;;;;;5067360;28;20196;-42
2021/03/02 11:54:12;;;;;;;15.07;10.80;;;23.10;32.10;;;;;;5061977;28;20192;-42
2021/03/02 11:56:37;;;;;;;12.33;11.13;;;23.40;31.50;;;;;;5068976;28;20192;-42
2021/03/02 11:59:03;;;;;;;13.67;11.77;;;23.60;31.10;;;;;;5065417;28;21580;-42
2021/03/02 12:01:28;;;;;;;12.83;10.83;;;23.70;30.00;;;;;;5065969;28;20196;-42
2021/03/02 12:03:54;;;;;;;15.70;11.13;;;23.60;29.40;;;;;;5065771;28;20195;-42
2021/03/02 12:06:20;;;;;;;12.53;10.87;;;23.50;29.70;;;;;;5069583;28;20214;-42
2021/03/02 12:08:45;;;;;;;13.23;11.03;;;23.60;29.10;;;;;;5065648;28;20188;-42
2021/03/02 12:11:11;;;;;;;13.20;11.20;;;23.60;29.30;;;;;;5058252;28;20200;-42
2021/03/02 12:13:36;;;;;;;14.40;10.73;;;23.20;29.80;;;;;;5071617;28;20194;-42
2021/03/02 12:16:02;;;;;;;16.43;10.87;;;23.30;30.00;;;;;;5068755;28;20793;-42
2021/03/02 12:18:28;;;;;;;14.67;11.40;;;23.50;30.00;;;;;;5065316;28;20228;-42
2021/03/02 12:20:53;;;;;;;14.03;10.70;;;23.60;29.70;;;;;;5065859;28;21927;-42
2021/03/02 12:23:19;;;;;;;11.80;9.87;;;23.60;30.00;;;;;;5047684;28;20283;-42
2021/03/02 12:25:44;;;;;;;11.37;9.90;;;23.80;30.90;;;;;;5064019;28;20600;-42
2021/03/02 12:28:10;;;;;;;14.53;11.00;;;24.00;29.90;;;;;;5060060;28;20270;-42
2021/03/02 12:30:36;;;;;;;11.87;10.70;;;24.10;29.20;;;;;;5062793;28;20228;-42
2021/03/02 12:33:03;;;;;;;15.30;10.80;;;24.10;30.10;;;;;;5064000;28;20192;-42
2021/03/02 12:35:28;;;;;;;15.50;10.73;;;24.00;30.30;;;;;;5065339;28;20239;-42
2021/03/02 12:37:54;;;;;;;15.63;11.50;;;24.10;29.50;;;;;;5063077;28;20790;-42
2021/03/02 12:40:20;;;;;;;8.37;7.57;;;24.30;29.80;;;;;;5064011;28;20188;-42
2021/03/02 12:42:45;;;;;;;12.57;8.80;;;24.40;29.40;;;;;;5062362;28;20271;-42
2021/03/02 12:45:11;;;;;;;11.17;9.40;;;24.60;29.80;;;;;;5066434;28;20234;-42
2021/03/02 12:47:37;;;;;;;10.20;8.20;;;24.80;29.20;;;;;;5060558;28;20286;-43
2021/03/02 12:50:08;;;;;;;10.83;8.63;;;25.10;29.20;;;;;;5065143;28;20544;-42